createdAt,value
2018-05-26T00:00:48.882Z,61.60
2018-05-26T00:03:17.700Z,58.17
2018-05-26T00:05:46.699Z,56.83
2018-05-26T00:08:15.554Z,48.50
2018-05-26T00:10:44.839Z,46.97
2018-05-26T00:13:13.728Z,53.07
2018-05-26T00:15:42.600Z,51.97
2018-05-26T00:18:11.535Z,60.63
2018-05-26T00:20:40.312Z,54.33
2018-05-26T00:23:09.193Z,60.40
2018-05-26T00:25:38.856Z,55.63
2018-05-26T00:28:08.734Z,57.30
2018-05-26T00:30:37.639Z,53.40
2018-05-26T00:33:07.266Z,53.90
2018-05-26T00:35:36.095Z,52.10
2018-05-26T00:38:05.348Z,59.50
2018-05-26T00:40:34.843Z,53.73
2018-05-26T00:43:04.524Z,53.30
2018-05-26T00:45:33.577Z,54.80
2018-05-26T00:48:02.733Z,51.03
2018-05-26T00:50:31.530Z,55.23
2018-05-26T00:53:00.904Z,45.83
2018-05-26T00:55:29.826Z,47.63
2018-05-26T00:57:58.971Z,45.07
2018-05-26T01:00:27.815Z,52.10
2018-05-26T01:02:57.473Z,54.63
2018-05-26T01:05:26.480Z,44.80
2018-05-26T01:07:55.593Z,50.40
2018-05-26T01:10:25.230Z,44.57
2018-05-26T01:12:54.073Z,43.93
2018-05-26T01:15:22.833Z,51.40
2018-05-26T01:17:51.896Z,49.00
2018-05-26T01:20:22.728Z,41.40
2018-05-26T01:22:51.727Z,43.60
2018-05-26T01:25:20.524Z,41.73
2018-05-26T01:27:49.422Z,39.67
2018-05-26T01:30:18.166Z,30.90
2018-05-26T01:32:47.869Z,33.40
2018-05-26T01:35:16.684Z,33.40
2018-05-26T01:37:45.608Z,30.67
2018-05-26T01:40:14.666Z,31.97
2018-05-26T01:42:43.589Z,32.13
2018-05-26T01:45:12.409Z,34.83
2018-05-26T01:47:41.322Z,34.90
2018-05-26T01:50:10.901Z,35.63
2018-05-26T01:52:39.875Z,43.20
2018-05-26T01:55:08.911Z,37.07
2018-05-26T01:57:37.690Z,36.63
2018-05-26T02:00:06.467Z,43.97
2018-05-26T02:02:35.418Z,38.20
2018-05-26T02:05:04.944Z,34.10
2018-05-26T02:07:33.829Z,41.60
2018-05-26T02:10:02.604Z,34.27
2018-05-26T02:12:32.177Z,38.20
2018-05-26T02:15:01.998Z,38.17
2018-05-26T02:17:30.761Z,39.00
2018-05-26T02:20:00.435Z,39.47
2018-05-26T02:22:29.229Z,41.47
2018-05-26T02:24:58.500Z,47.10
2018-05-26T02:27:27.389Z,39.00
2018-05-26T02:29:56.524Z,44.17
2018-05-26T02:32:25.352Z,38.43
2018-05-26T02:34:54.098Z,40.13
2018-05-26T02:37:22.862Z,37.73
2018-05-26T02:39:52.416Z,41.53
2018-05-26T02:42:22.449Z,44.93
2018-05-26T02:44:51.374Z,43.90
2018-05-26T02:47:20.188Z,42.17
2018-05-26T02:49:49.408Z,46.17
2018-05-26T02:52:19.050Z,49.33
2018-05-26T02:54:48.617Z,54.73
2018-05-26T02:57:17.569Z,52.47
2018-05-26T02:59:46.399Z,45.90
2018-05-26T03:02:15.370Z,47.27
2018-05-26T03:04:49.957Z,47.27
2018-05-26T03:07:24.243Z,48.63
2018-05-26T03:09:59.338Z,49.90
2018-05-26T03:12:33.808Z,53.47
2018-05-26T03:15:02.123Z,52.47
2018-05-26T03:17:42.831Z,51.70
2018-05-26T03:20:12.461Z,54.97
2018-05-26T03:22:41.310Z,50.80
2018-05-26T03:25:10.122Z,61.83
2018-05-26T03:27:39.795Z,61.57
2018-05-26T03:30:08.634Z,61.10
2018-05-26T03:32:37.415Z,61.80
2018-05-26T03:35:06.281Z,55.97
2018-05-26T03:37:35.004Z,50.63
2018-05-26T03:40:03.853Z,47.73
2018-05-26T03:42:32.694Z,45.03
2018-05-26T03:45:02.637Z,46.87
2018-05-26T03:47:32.111Z,46.33
2018-05-26T03:50:01.398Z,50.20
2018-05-26T03:52:30.405Z,55.30
2018-05-26T03:58:21.513Z,41.43
2018-05-26T04:00:50.372Z,41.13
2018-05-26T04:03:19.173Z,48.50
2018-05-26T04:05:48.087Z,42.77
2018-05-26T04:08:17.886Z,37.57
2018-05-26T04:10:46.648Z,39.60
2018-05-26T04:13:16.203Z,37.27
2018-05-26T04:15:45.039Z,38.30
2018-05-26T04:18:15.135Z,47.13
2018-05-26T04:20:44.794Z,45.63
2018-05-26T04:23:13.761Z,39.70
2018-05-26T04:25:42.660Z,43.87
2018-05-26T04:28:11.572Z,44.50
2018-05-26T04:30:40.388Z,39.17
2018-05-26T04:33:10.027Z,41.67
2018-05-26T04:35:38.968Z,32.43
2018-05-26T04:38:07.805Z,31.10
2018-05-26T04:40:36.836Z,34.27
2018-05-26T04:43:05.695Z,32.60
2018-05-26T04:45:34.707Z,33.67
2018-05-26T04:48:03.676Z,33.60
2018-05-26T04:50:33.201Z,35.10
2018-05-26T04:53:02.082Z,29.77
2018-05-26T04:55:31.650Z,35.97
2018-05-26T04:58:01.617Z,35.47
2018-05-26T05:00:30.434Z,48.87
2018-05-26T05:02:59.229Z,48.33
2018-05-26T05:05:28.017Z,30.90
2018-05-26T05:07:56.868Z,28.80
2018-05-26T05:10:26.417Z,32.73
2018-05-26T05:12:55.193Z,34.43
2018-05-26T05:15:24.881Z,36.90
2018-05-26T05:17:53.728Z,29.23
2018-05-26T05:20:22.541Z,27.33
2018-05-26T05:22:52.219Z,26.80
2018-05-26T05:25:21.150Z,34.33
2018-05-26T05:27:50.134Z,42.93
2018-05-26T05:30:19.690Z,34.20
2018-05-26T05:32:48.489Z,21.07
2018-05-26T05:35:17.350Z,29.83
2018-05-26T05:37:46.930Z,30.80
2018-05-26T05:40:15.890Z,33.43
2018-05-26T05:42:44.803Z,45.27
2018-05-26T05:45:13.637Z,35.50
2018-05-26T05:47:42.512Z,24.17
2018-05-26T05:50:11.610Z,26.80
2018-05-26T05:52:41.460Z,26.37
2018-05-26T05:55:10.278Z,35.80
2018-05-26T05:57:39.433Z,35.40
2018-05-26T06:00:08.266Z,35.83
2018-05-26T06:02:37.190Z,28.37
2018-05-26T06:05:06.051Z,30.23
2018-05-26T06:07:34.917Z,33.50
2018-05-26T06:10:03.839Z,30.00
2018-05-26T06:12:32.868Z,31.60
2018-05-26T06:15:01.624Z,29.33
2018-05-26T06:17:30.414Z,38.33
2018-05-26T06:19:59.287Z,33.47
2018-05-26T06:22:28.250Z,32.07
2018-05-26T06:24:57.040Z,31.23
2018-05-26T06:27:25.860Z,28.23
2018-05-26T06:29:55.517Z,25.47
2018-05-26T06:32:24.431Z,26.10
2018-05-26T06:34:53.212Z,26.60
2018-05-26T06:37:22.057Z,29.77
2018-05-26T06:39:50.899Z,35.20
2018-05-26T06:42:19.943Z,26.60
2018-05-26T06:44:48.853Z,30.00
2018-05-26T06:47:18.646Z,26.97
2018-05-26T06:49:47.506Z,27.77
2018-05-26T06:52:18.473Z,35.47
2018-05-26T06:54:47.408Z,27.83
2018-05-26T06:57:16.306Z,26.67
2018-05-26T06:59:45.325Z,24.60
2018-05-26T07:02:14.965Z,30.67
2018-05-26T07:04:44.200Z,25.83
2018-05-26T07:07:13.026Z,23.20
2018-05-26T07:09:42.579Z,23.83
2018-05-26T07:12:11.383Z,24.23
2018-05-26T07:14:40.256Z,26.73
2018-05-26T07:17:09.110Z,24.77
2018-05-26T07:19:38.642Z,28.23
2018-05-26T07:22:07.648Z,22.17
2018-05-26T07:24:36.474Z,27.40
2018-05-26T07:27:05.328Z,25.33
2018-05-26T07:29:34.490Z,24.83
2018-05-26T07:32:03.399Z,30.23
2018-05-26T07:34:32.333Z,25.17
2018-05-26T07:37:01.113Z,30.00
2018-05-26T07:39:30.790Z,30.33
2018-05-26T07:42:00.015Z,23.97
2018-05-26T07:44:29.605Z,29.83
2018-05-26T07:46:58.609Z,26.30
2018-05-26T07:49:28.641Z,21.33
2018-05-26T07:51:58.255Z,22.83
2018-05-26T07:54:27.155Z,26.47
2018-05-26T07:56:56.775Z,21.33
2018-05-26T07:59:26.007Z,18.93
2018-05-26T08:01:54.807Z,24.03
2018-05-26T08:04:23.752Z,29.90
2018-05-26T08:06:53.280Z,29.13
2018-05-26T08:09:22.321Z,25.33
2018-05-26T08:11:51.230Z,26.20
2018-05-26T08:14:20.142Z,28.90
2018-05-26T08:16:48.869Z,23.97
2018-05-26T08:19:17.661Z,27.47
2018-05-26T08:21:46.596Z,35.80
2018-05-26T08:24:16.305Z,22.90
2018-05-26T08:26:45.211Z,21.43
2018-05-26T08:29:14.781Z,19.67
2018-05-26T08:31:43.847Z,21.33
2018-05-26T08:34:12.823Z,19.57
2018-05-26T08:36:41.573Z,20.33
2018-05-26T08:39:10.405Z,16.57
2018-05-26T08:41:39.154Z,16.03
2018-05-26T08:44:08.232Z,19.00
2018-05-26T08:46:37.228Z,19.07
2018-05-26T08:49:06.765Z,16.73
2018-05-26T08:51:36.303Z,18.33
2018-05-26T08:54:05.204Z,18.03
2018-05-26T08:56:34.116Z,21.40
2018-05-26T08:59:02.944Z,16.23
2018-05-26T09:01:31.995Z,16.27
2018-05-26T09:04:00.835Z,17.40
2018-05-26T09:06:29.891Z,18.93
2018-05-26T09:08:58.771Z,15.57
2018-05-26T09:11:29.123Z,14.77
2018-05-26T09:13:57.893Z,16.27
2018-05-26T09:16:26.796Z,18.03
2018-05-26T09:18:55.509Z,15.73
2018-05-26T09:21:24.402Z,17.97
2018-05-26T09:23:53.683Z,19.97
2018-05-26T09:26:22.490Z,21.50
2018-05-26T09:28:51.387Z,23.00
2018-05-26T09:31:20.401Z,17.60
2018-05-26T09:33:49.190Z,20.67
2018-05-26T09:36:18.092Z,17.87
2018-05-26T09:38:46.908Z,20.07
2018-05-26T09:41:15.733Z,18.63
2018-05-26T09:43:45.868Z,14.80
2018-05-26T09:46:15.108Z,14.97
2018-05-26T09:48:44.218Z,23.37
2018-05-26T09:51:13.045Z,16.53
2018-05-26T09:53:41.795Z,17.50
2018-05-26T09:56:11.799Z,14.10
2018-05-26T09:58:40.694Z,15.90
2018-05-26T10:01:12.498Z,23.17
2018-05-26T10:03:41.358Z,19.33
2018-05-26T10:06:10.235Z,20.00
2018-05-26T10:08:39.044Z,20.63
2018-05-26T10:11:07.831Z,13.50
2018-05-26T10:13:36.689Z,18.10
2018-05-26T10:16:05.483Z,24.47
2018-05-26T10:18:35.083Z,18.33
2018-05-26T10:21:03.923Z,20.13
2018-05-26T10:23:32.734Z,19.70
2018-05-26T10:26:01.776Z,16.97
2018-05-26T10:28:30.867Z,22.63
2018-05-26T10:30:59.701Z,14.47
2018-05-26T10:33:28.542Z,12.07
2018-05-26T10:35:57.416Z,14.17
2018-05-26T10:38:26.477Z,15.30
2018-05-26T10:40:56.054Z,15.93
2018-05-26T10:43:24.924Z,11.57
2018-05-26T10:46:05.514Z,10.73
2018-05-26T10:48:34.124Z,13.70
2018-05-26T10:51:03.011Z,10.67
2018-05-26T10:53:31.684Z,14.50
2018-05-26T10:56:07.547Z,14.83
2018-05-26T10:58:38.186Z,11.00
2018-05-26T11:01:08.282Z,15.60
2018-05-26T11:03:38.310Z,14.60
2018-05-26T11:06:08.199Z,20.53
2018-05-26T11:08:44.245Z,16.30
2018-05-26T11:11:16.261Z,13.30
2018-05-26T11:13:45.935Z,14.17
2018-05-26T11:16:15.045Z,20.43
2018-05-26T11:18:44.030Z,18.77
2018-05-26T11:21:20.160Z,14.27
2018-05-26T11:23:50.904Z,15.17
2018-05-26T11:26:20.852Z,13.93
2018-05-26T11:28:52.680Z,13.53
2018-05-26T11:31:22.890Z,11.67
2018-05-26T11:33:54.493Z,21.00
2018-05-26T11:36:23.994Z,9.17
2018-05-26T11:38:53.762Z,11.00
2018-05-26T11:41:24.669Z,8.33
2018-05-26T11:43:53.844Z,10.33
2018-05-26T11:46:22.620Z,7.53
2018-05-26T11:48:58.442Z,10.60
2018-05-26T11:51:29.666Z,9.67
2018-05-26T11:53:59.609Z,9.53
2018-05-26T11:56:29.044Z,9.80
2018-05-26T11:59:00.059Z,11.07
2018-05-26T12:01:28.925Z,12.40
2018-05-26T12:04:00.587Z,12.87
2018-05-26T12:06:30.204Z,14.00
2018-05-26T12:09:01.154Z,15.30
2018-05-26T12:11:29.965Z,11.67
2018-05-26T12:13:58.665Z,20.43
2018-05-26T12:16:27.452Z,9.77
2018-05-26T12:18:56.936Z,13.90
2018-05-26T12:21:25.705Z,17.90
2018-05-26T12:23:54.432Z,14.93
2018-05-26T12:26:23.191Z,13.67
2018-05-26T12:28:51.992Z,14.03
2018-05-26T12:31:20.631Z,25.93
2018-05-26T12:33:50.319Z,29.87
2018-05-26T12:36:19.165Z,23.13
2018-05-26T12:38:48.153Z,13.57
2018-05-26T12:41:16.922Z,12.83
2018-05-26T12:43:46.536Z,19.30
2018-05-26T12:46:16.094Z,10.77
2018-05-26T12:48:44.714Z,14.57
2018-05-26T12:51:13.471Z,12.13
2018-05-26T12:53:42.109Z,10.50
2018-05-26T12:56:10.864Z,13.27
2018-05-26T12:58:39.714Z,31.43
2018-05-26T13:01:08.666Z,13.67
2018-05-26T13:03:38.115Z,26.20
2018-05-26T13:06:08.004Z,30.47
2018-05-26T13:08:37.194Z,42.60
2018-05-26T13:11:07.421Z,36.80
2018-05-26T13:13:36.135Z,23.93
2018-05-26T13:16:05.238Z,34.07
2018-05-26T13:18:34.583Z,44.37
2018-05-26T13:21:04.103Z,30.03
2018-05-26T13:23:32.912Z,23.47
2018-05-26T13:26:01.761Z,10.63
2018-05-26T13:28:31.223Z,11.70
2018-05-26T13:30:59.879Z,11.57
2018-05-26T13:33:28.667Z,11.67
2018-05-26T13:35:57.456Z,22.83
2018-05-26T13:38:26.253Z,11.53
2018-05-26T13:40:55.023Z,12.30
2018-05-26T13:43:23.905Z,10.63
2018-05-26T13:45:52.702Z,9.50
2018-05-26T13:48:21.802Z,10.73
2018-05-26T13:50:51.366Z,13.50
2018-05-26T13:53:20.211Z,30.97
2018-05-26T13:55:49.087Z,10.43
2018-05-26T13:58:17.977Z,18.53
2018-05-26T14:00:46.773Z,12.13
2018-05-26T14:03:15.648Z,18.17
2018-05-26T14:05:44.535Z,14.27
2018-05-26T14:08:14.244Z,30.63
2018-05-26T14:10:43.084Z,24.50
2018-05-26T14:13:12.652Z,20.40
2018-05-26T14:15:41.437Z,17.70
2018-05-26T14:18:11.649Z,17.93
2018-05-26T14:20:42.099Z,11.63
2018-05-26T14:23:11.123Z,12.40
2018-05-26T14:25:40.189Z,11.53
2018-05-26T14:28:10.313Z,26.10
2018-05-26T14:30:40.176Z,14.77
2018-05-26T14:33:09.145Z,10.47
2018-05-26T14:35:38.174Z,15.67
2018-05-26T14:38:07.078Z,17.37
2018-05-26T14:40:36.692Z,22.93
2018-05-26T14:43:05.487Z,10.80
2018-05-26T14:45:34.346Z,28.83
2018-05-26T14:48:03.310Z,15.33
2018-05-26T14:50:32.270Z,9.53
2018-05-26T14:53:01.831Z,13.60
2018-05-26T14:55:30.690Z,13.60
2018-05-26T14:57:59.403Z,25.60
2018-05-26T15:00:28.378Z,19.97
2018-05-26T15:02:57.242Z,19.07
2018-05-26T15:05:26.790Z,14.10
2018-05-26T15:08:02.980Z,9.33
2018-05-26T15:10:37.096Z,9.40
2018-05-26T15:13:06.053Z,13.07
2018-05-26T15:15:36.164Z,6.07
2018-05-26T15:18:05.666Z,6.83
2018-05-26T15:20:35.429Z,8.63
2018-05-26T15:23:08.240Z,8.63
2018-05-26T15:25:37.725Z,6.53
2018-05-26T15:28:07.231Z,7.87
2018-05-26T15:30:36.665Z,9.57
2018-05-26T15:33:06.814Z,10.40
2018-05-26T15:35:35.651Z,10.17
2018-05-26T15:38:04.614Z,8.73
2018-05-26T15:40:33.765Z,6.23
2018-05-26T15:43:02.656Z,12.13
2018-05-26T15:45:31.454Z,21.20
2018-05-26T15:48:00.257Z,13.87
2018-05-26T15:50:29.092Z,8.63
2018-05-26T15:52:57.954Z,10.37
2018-05-26T15:55:27.561Z,12.53
2018-05-26T15:57:56.441Z,17.87
2018-05-26T16:00:25.506Z,27.07
2018-05-26T16:02:54.479Z,33.67
2018-05-26T16:05:23.566Z,24.43
2018-05-26T16:07:52.461Z,16.47
2018-05-26T16:10:22.202Z,12.80
2018-05-26T16:12:51.275Z,12.93
2018-05-26T16:15:21.393Z,17.63
2018-05-26T16:17:50.405Z,16.83
2018-05-26T16:20:19.633Z,35.53
2018-05-26T16:22:49.328Z,19.27
2018-05-26T16:25:18.324Z,12.63
2018-05-26T16:27:47.963Z,7.40
2018-05-26T16:30:16.991Z,11.57
2018-05-26T16:32:46.025Z,14.17
2018-05-26T16:35:17.491Z,15.90
2018-05-26T16:37:46.603Z,16.13
2018-05-26T16:40:15.505Z,22.03
2018-05-26T16:42:45.011Z,14.60
2018-05-26T16:45:14.749Z,11.13
2018-05-26T16:47:43.813Z,12.13
2018-05-26T16:50:13.773Z,9.67
2018-05-26T16:52:43.891Z,7.77
2018-05-26T16:55:13.128Z,10.33
2018-05-26T16:57:41.968Z,8.93
2018-05-26T17:00:11.512Z,15.27
2018-05-26T17:02:58.746Z,16.47
2018-05-26T17:05:29.636Z,10.37
2018-05-26T17:07:59.269Z,21.03
2018-05-26T17:10:28.368Z,16.77
2018-05-26T17:12:57.658Z,29.50
2018-05-26T17:15:26.712Z,33.70
2018-05-26T17:17:56.407Z,24.83
2018-05-26T17:20:25.572Z,19.77
2018-05-26T17:22:54.425Z,15.70
2018-05-26T17:25:23.912Z,14.93
2018-05-26T17:27:52.642Z,14.87
2018-05-26T17:30:21.591Z,13.30
2018-05-26T17:32:51.256Z,11.43
2018-05-26T17:35:20.267Z,15.23
2018-05-26T17:37:50.321Z,13.10
2018-05-26T17:40:19.104Z,14.37
2018-05-26T17:42:48.334Z,12.53
2018-05-26T17:45:17.783Z,12.37
2018-05-26T17:47:46.701Z,11.97
2018-05-26T17:50:15.507Z,14.77
2018-05-26T17:52:44.448Z,13.17
2018-05-26T17:55:13.164Z,14.43
2018-05-26T17:57:42.887Z,11.47
2018-05-26T18:00:11.803Z,14.30
2018-05-26T18:02:40.946Z,20.13
2018-05-26T18:05:09.694Z,13.97
2018-05-26T18:07:38.519Z,14.23
2018-05-26T18:10:07.505Z,17.40
2018-05-26T18:12:36.466Z,11.53
2018-05-26T18:15:05.399Z,13.57
2018-05-26T18:17:35.052Z,16.53
2018-05-26T18:20:04.023Z,12.13
2018-05-26T18:22:33.945Z,16.40
2018-05-26T18:25:02.834Z,15.97
2018-05-26T18:27:31.886Z,10.77
2018-05-26T18:30:00.730Z,14.50
2018-05-26T18:32:29.718Z,14.37
2018-05-26T18:34:59.195Z,17.73
2018-05-26T18:37:27.929Z,22.07
2018-05-26T18:39:56.756Z,44.37
2018-05-26T18:42:25.629Z,76.40
2018-05-26T18:44:54.502Z,64.00
2018-05-26T18:47:23.285Z,88.13
2018-05-26T18:49:52.109Z,89.70
2018-05-26T18:52:20.948Z,100.03
2018-05-26T18:54:49.904Z,80.27
2018-05-26T18:57:21.412Z,70.37
2018-05-26T18:59:50.688Z,48.33
2018-05-26T19:02:19.491Z,26.53
2018-05-26T19:04:48.383Z,15.87
2018-05-26T19:07:18.190Z,17.53
2018-05-26T19:09:47.728Z,13.17
2018-05-26T19:12:16.603Z,16.50
2018-05-26T19:14:45.593Z,12.90
2018-05-26T19:17:14.818Z,14.30
2018-05-26T19:19:44.493Z,18.57
2018-05-26T19:22:13.461Z,15.90
2018-05-26T19:24:42.285Z,17.20
2018-05-26T19:27:11.221Z,12.73
2018-05-26T19:29:40.896Z,18.00
2018-05-26T19:32:09.758Z,18.33
2018-05-26T19:34:38.489Z,20.10
2018-05-26T19:37:07.326Z,23.13
2018-05-26T19:39:36.306Z,14.33
2018-05-26T19:42:06.008Z,13.27
2018-05-26T19:44:35.586Z,15.43
2018-05-26T19:47:05.264Z,16.87
2018-05-26T19:49:34.818Z,18.90
2018-05-26T19:52:03.908Z,43.30
2018-05-26T19:54:32.692Z,91.37
2018-05-26T19:57:01.597Z,69.57
2018-05-26T19:59:30.472Z,80.97
2018-05-26T20:01:59.443Z,19.63
2018-05-26T20:04:28.307Z,15.23
2018-05-26T20:06:57.904Z,15.03
2018-05-26T20:09:26.853Z,16.63
2018-05-26T20:11:55.707Z,20.80
2018-05-26T20:14:24.470Z,52.90
2018-05-26T20:16:54.206Z,73.30
2018-05-26T20:19:23.292Z,51.67
2018-05-26T20:21:52.159Z,28.50
2018-05-26T20:24:21.633Z,32.57
2018-05-26T20:26:50.937Z,40.27
2018-05-26T20:29:19.731Z,22.70
2018-05-26T20:31:48.548Z,17.00
2018-05-26T20:34:18.099Z,13.80
2018-05-26T20:36:46.815Z,18.33
2018-05-26T20:39:16.901Z,15.20
2018-05-26T20:44:19.941Z,13.70
2018-05-26T20:46:48.812Z,14.63
2018-05-26T20:49:17.821Z,12.90
2018-05-26T20:51:46.771Z,13.93
2018-05-26T20:54:16.374Z,15.73
2018-05-26T20:56:46.737Z,15.53
2018-05-26T20:59:16.806Z,16.93
2018-05-26T21:01:47.240Z,17.77
2018-05-26T21:04:23.932Z,13.83
2018-05-26T21:06:55.330Z,17.20
2018-05-26T21:09:26.154Z,16.43
2018-05-26T21:11:55.681Z,12.53
2018-05-26T21:14:25.896Z,13.73
2018-05-26T21:16:55.704Z,14.33
2018-05-26T21:19:25.698Z,15.03
2018-05-26T21:21:54.820Z,12.17
2018-05-26T21:24:23.956Z,20.80
2018-05-26T21:26:52.761Z,15.27
2018-05-26T21:29:21.820Z,14.53
2018-05-26T21:31:50.734Z,15.50
2018-05-26T21:34:19.636Z,16.23
2018-05-26T21:36:48.581Z,15.33
2018-05-26T21:39:17.516Z,17.90
2018-05-26T21:41:46.712Z,14.77
2018-05-26T21:44:15.490Z,19.97
2018-05-26T21:46:44.270Z,19.00
2018-05-26T21:49:13.105Z,17.77
2018-05-26T21:51:41.994Z,19.50
2018-05-26T21:54:10.832Z,18.67
2018-05-26T21:56:39.579Z,17.97
2018-05-26T21:59:08.403Z,18.60
2018-05-26T22:01:37.243Z,22.13
2018-05-26T22:04:06.090Z,16.87
2018-05-26T22:06:35.007Z,17.40
2018-05-26T22:09:04.724Z,15.63
2018-05-26T22:11:33.704Z,22.27
2018-05-26T22:14:02.918Z,18.77
2018-05-26T22:16:31.918Z,25.50
2018-05-26T22:19:00.921Z,18.17
2018-05-26T22:21:29.797Z,23.07
2018-05-26T23:45:57.851Z,25.33
2018-05-26T23:48:26.668Z,24.10
2018-05-26T23:50:55.707Z,25.60
2018-05-26T23:53:24.524Z,24.57
2018-05-26T23:55:53.652Z,22.90
2018-05-26T23:58:22.522Z,31.13
